sensor_id;sensor_type;location;lat;lon;timestamp;pressure;altitude;pressure_sealevel;temperature;humidity
22755;BME280;11544;42.020;23.094;2023-02-16T00:00:32;98592.34;;;0.27;100.00
22755;BME280;11544;42.020;23.094;2023-02-16T00:02:59;98583.44;;;-0.16;100.00
22755;BME280;11544;42.020;23.094;2023-02-16T00:05:29;98590.56;;;0.25;100.00
22755;BME280;11544;42.020;23.094;2023-02-16T00:07:58;98590.00;;;-0.26;100.00
22755;BME280;11544;42.020;23.094;2023-02-16T00:10:31;98589.19;;;0.06;100.00
22755;BME280;11544;42.020;23.094;2023-02-16T00:12:59;98593.72;;;-0.14;100.00
22755;BME280;11544;42.020;23.094;2023-02-16T00:15:45;98589.31;;;-0.20;100.00
22755;BME280;11544;42.020;23.094;2023-02-16T00:18:16;98583.47;;;-0.14;100.00
22755;BME280;11544;42.020;23.094;2023-02-16T00:20:44;98597.25;;;-0.11;100.00
22755;BME280;11544;42.020;23.094;2023-02-16T00:23:11;98593.38;;;-0.27;100.00
22755;BME280;11544;42.020;23.094;2023-02-16T00:25:38;98586.09;;;-0.13;100.00
22755;BME280;11544;42.020;23.094;2023-02-16T00:28:15;98589.78;;;-0.03;100.00
22755;BME280;11544;42.020;23.094;2023-02-16T00:30:44;98596.16;;;-0.19;100.00
22755;BME280;11544;42.020;23.094;2023-02-16T00:33:17;98594.56;;;-0.44;100.00
22755;BME280;11544;42.020;23.094;2023-02-16T00:35:46;98588.53;;;-0.46;100.00
22755;BME280;11544;42.020;23.094;2023-02-16T00:38:13;98601.53;;;-0.40;100.00
22755;BME280;11544;42.020;23.094;2023-02-16T00:40:41;98594.03;;;-0.04;100.00
22755;BME280;11544;42.020;23.094;2023-02-16T00:43:22;98596.63;;;0.28;100.00
22755;BME280;11544;42.020;23.094;2023-02-16T00:45:51;98595.34;;;-0.18;100.00
22755;BME280;11544;42.020;23.094;2023-02-16T00:48:19;98591.88;;;-0.49;100.00
22755;BME280;11544;42.020;23.094;2023-02-16T00:50:47;98593.16;;;-0.61;100.00
22755;BME280;11544;42.020;23.094;2023-02-16T00:53:16;98594.03;;;-0.04;100.00
22755;BME280;11544;42.020;23.094;2023-02-16T00:55:44;98596.69;;;0.30;100.00
22755;BME280;11544;42.020;23.094;2023-02-16T00:58:24;98590.56;;;-0.06;100.00
22755;BME280;11544;42.020;23.094;2023-02-16T01:00:55;98586.25;;;-0.37;100.00
22755;BME280;11544;42.020;23.094;2023-02-16T01:03:27;98589.16;;;-0.53;100.00
22755;BME280;11544;42.020;23.094;2023-02-16T01:05:55;98584.75;;;-0.30;100.00
22755;BME280;11544;42.020;23.094;2023-02-16T01:08:44;98578.19;;;-0.20;100.00
22755;BME280;11544;42.020;23.094;2023-02-16T01:11:30;98580.28;;;-0.36;100.00
22755;BME280;11544;42.020;23.094;2023-02-16T01:13:57;98577.31;;;-0.50;100.00
22755;BME280;11544;42.020;23.094;2023-02-16T01:16:36;98581.19;;;-0.62;100.00
22755;BME280;11544;42.020;23.094;2023-02-16T01:19:05;98576.50;;;-0.76;100.00
22755;BME280;11544;42.020;23.094;2023-02-16T01:21:32;98575.81;;;-0.43;100.00
22755;BME280;11544;42.020;23.094;2023-02-16T01:24:00;98576.66;;;-0.44;100.00
22755;BME280;11544;42.020;23.094;2023-02-16T01:26:28;98575.06;;;-0.68;100.00
22755;BME280;11544;42.020;23.094;2023-02-16T01:28:55;98567.19;;;-0.74;100.00
22755;BME280;11544;42.020;23.094;2023-02-16T01:31:22;98566.56;;;-0.67;100.00
22755;BME280;11544;42.020;23.094;2023-02-16T01:33:50;98558.22;;;-0.61;100.00
22755;BME280;11544;42.020;23.094;2023-02-16T01:36:24;98563.47;;;-0.56;100.00
22755;BME280;11544;42.020;23.094;2023-02-16T01:38:52;98570.75;;;-0.69;100.00
22755;BME280;11544;42.020;23.094;2023-02-16T01:44:04;98564.34;;;-0.56;100.00
22755;BME280;11544;42.020;23.094;2023-02-16T01:49:19;98562.69;;;-0.82;100.00
22755;BME280;11544;42.020;23.094;2023-02-16T01:51:57;98565.09;;;-0.87;100.00
22755;BME280;11544;42.020;23.094;2023-02-16T01:54:33;98573.03;;;-1.05;100.00
22755;BME280;11544;42.020;23.094;2023-02-16T01:57:33;98562.50;;;-1.14;100.00
22755;BME280;11544;42.020;23.094;2023-02-16T02:02:25;98570.09;;;-0.90;100.00
22755;BME280;11544;42.020;23.094;2023-02-16T02:05:01;98567.63;;;-0.60;100.00
22755;BME280;11544;42.020;23.094;2023-02-16T02:08:13;98565.25;;;-0.81;100.00
22755;BME280;11544;42.020;23.094;2023-02-16T02:11:06;98557.44;;;-0.58;100.00
22755;BME280;11544;42.020;23.094;2023-02-16T02:16:07;98558.88;;;-0.08;100.00
22755;BME280;11544;42.020;23.094;2023-02-16T02:18:37;98556.50;;;-0.60;100.00
22755;BME280;11544;42.020;23.094;2023-02-16T02:24:33;98550.69;;;-1.11;100.00
22755;BME280;11544;42.020;23.094;2023-02-16T02:33:12;98556.91;;;-1.30;100.00
22755;BME280;11544;42.020;23.094;2023-02-16T02:36:27;98557.53;;;-1.10;100.00
22755;BME280;11544;42.020;23.094;2023-02-16T02:44:37;98552.78;;;-0.99;100.00
22755;BME280;11544;42.020;23.094;2023-02-16T02:47:05;98548.25;;;-1.33;100.00
22755;BME280;11544;42.020;23.094;2023-02-16T02:49:33;98547.75;;;-1.48;100.00
22755;BME280;11544;42.020;23.094;2023-02-16T02:52:04;98554.13;;;-1.36;100.00
22755;BME280;11544;42.020;23.094;2023-02-16T02:54:45;98556.69;;;-1.36;100.00
22755;BME280;11544;42.020;23.094;2023-02-16T02:57:36;98556.13;;;-1.53;100.00
22755;BME280;11544;42.020;23.094;2023-02-16T03:03:20;98554.78;;;-1.67;100.00
22755;BME280;11544;42.020;23.094;2023-02-16T03:06:06;98561.28;;;-1.77;100.00
22755;BME280;11544;42.020;23.094;2023-02-16T03:08:39;98556.94;;;-1.79;100.00
22755;BME280;11544;42.020;23.094;2023-02-16T03:14:06;98553.94;;;-1.92;100.00
22755;BME280;11544;42.020;23.094;2023-02-16T03:16:56;98556.63;;;-1.12;100.00
22755;BME280;11544;42.020;23.094;2023-02-16T03:19:44;98556.84;;;-1.31;100.00
22755;BME280;11544;42.020;23.094;2023-02-16T03:22:32;98555.16;;;-1.31;100.00
22755;BME280;11544;42.020;23.094;2023-02-16T03:25:23;98557.09;;;-1.75;100.00
22755;BME280;11544;42.020;23.094;2023-02-16T03:28:12;98561.44;;;-1.72;100.00
22755;BME280;11544;42.020;23.094;2023-02-16T03:30:59;98554.31;;;-2.05;100.00
22755;BME280;11544;42.020;23.094;2023-02-16T03:33:28;98555.88;;;-1.60;100.00
22755;BME280;11544;42.020;23.094;2023-02-16T03:35:56;98555.78;;;-2.11;100.00
22755;BME280;11544;42.020;23.094;2023-02-16T03:38:24;98559.44;;;-2.05;100.00
22755;BME280;11544;42.020;23.094;2023-02-16T03:40:54;98566.69;;;-2.16;100.00
22755;BME280;11544;42.020;23.094;2023-02-16T03:43:24;98562.56;;;-2.36;100.00
22755;BME280;11544;42.020;23.094;2023-02-16T03:45:54;98558.19;;;-2.16;100.00
22755;BME280;11544;42.020;23.094;2023-02-16T03:48:21;98560.31;;;-2.04;100.00
22755;BME280;11544;42.020;23.094;2023-02-16T03:50:48;98564.06;;;-1.95;100.00
22755;BME280;11544;42.020;23.094;2023-02-16T03:53:19;98566.59;;;-1.71;100.00
22755;BME280;11544;42.020;23.094;2023-02-16T03:55:47;98562.97;;;-2.01;100.00
22755;BME280;11544;42.020;23.094;2023-02-16T03:58:21;98564.72;;;-2.24;100.00
22755;BME280;11544;42.020;23.094;2023-02-16T04:00:49;98567.63;;;-1.65;100.00
22755;BME280;11544;42.020;23.094;2023-02-16T04:03:17;98561.72;;;-1.13;100.00
22755;BME280;11544;42.020;23.094;2023-02-16T04:05:44;98554.81;;;-1.91;100.00
22755;BME280;11544;42.020;23.094;2023-02-16T04:08:12;98557.41;;;-2.14;100.00
22755;BME280;11544;42.020;23.094;2023-02-16T04:10:39;98560.06;;;-2.35;100.00
22755;BME280;11544;42.020;23.094;2023-02-16T04:13:07;98558.00;;;-1.97;100.00
22755;BME280;11544;42.020;23.094;2023-02-16T04:15:34;98563.69;;;-1.81;100.00
22755;BME280;11544;42.020;23.094;2023-02-16T04:18:01;98564.22;;;-2.14;100.00
22755;BME280;11544;42.020;23.094;2023-02-16T04:20:31;98560.72;;;-2.16;100.00
22755;BME280;11544;42.020;23.094;2023-02-16T04:22:59;98553.13;;;-1.90;100.00
22755;BME280;11544;42.020;23.094;2023-02-16T04:25:29;98560.03;;;-2.12;100.00
22755;BME280;11544;42.020;23.094;2023-02-16T04:28:02;98554.63;;;-2.20;100.00
22755;BME280;11544;42.020;23.094;2023-02-16T04:30:30;98548.94;;;-2.13;100.00
22755;BME280;11544;42.020;23.094;2023-02-16T04:32:58;98545.97;;;-1.51;100.00
22755;BME280;11544;42.020;23.094;2023-02-16T04:35:25;98542.94;;;-1.39;100.00
22755;BME280;11544;42.020;23.094;2023-02-16T04:37:52;98535.06;;;-1.18;100.00
22755;BME280;11544;42.020;23.094;2023-02-16T04:40:19;98543.50;;;-1.98;100.00
22755;BME280;11544;42.020;23.094;2023-02-16T04:42:49;98545.84;;;-2.04;100.00
22755;BME280;11544;42.020;23.094;2023-02-16T04:45:20;98557.56;;;-2.33;100.00
22755;BME280;11544;42.020;23.094;2023-02-16T04:47:48;98552.53;;;-2.07;100.00
22755;BME280;11544;42.020;23.094;2023-02-16T04:50:15;98564.38;;;-2.33;100.00
22755;BME280;11544;42.020;23.094;2023-02-16T04:52:43;98563.25;;;-2.40;100.00
22755;BME280;11544;42.020;23.094;2023-02-16T04:55:10;98567.34;;;-2.45;100.00
22755;BME280;11544;42.020;23.094;2023-02-16T04:57:38;98573.19;;;-2.48;100.00
22755;BME280;11544;42.020;23.094;2023-02-16T05:00:07;98570.97;;;-2.61;100.00
22755;BME280;11544;42.020;23.094;2023-02-16T05:02:34;98564.16;;;-1.67;100.00
22755;BME280;11544;42.020;23.094;2023-02-16T05:05:05;98564.16;;;-1.42;100.00
22755;BME280;11544;42.020;23.094;2023-02-16T05:07:33;98565.34;;;-2.06;100.00
22755;BME280;11544;42.020;23.094;2023-02-16T05:10:05;98562.50;;;-2.38;100.00
22755;BME280;11544;42.020;23.094;2023-02-16T05:12:32;98569.84;;;-2.23;100.00
22755;BME280;11544;42.020;23.094;2023-02-16T05:15:18;98565.84;;;-1.92;100.00
22755;BME280;11544;42.020;23.094;2023-02-16T05:17:45;98577.50;;;-2.23;100.00
22755;BME280;11544;42.020;23.094;2023-02-16T05:20:12;98578.28;;;-2.25;100.00
22755;BME280;11544;42.020;23.094;2023-02-16T05:22:39;98578.94;;;-2.31;100.00
22755;BME280;11544;42.020;23.094;2023-02-16T05:25:07;98579.38;;;-2.41;100.00
22755;BME280;11544;42.020;23.094;2023-02-16T05:27:33;98579.28;;;-1.98;100.00
22755;BME280;11544;42.020;23.094;2023-02-16T05:30:01;98581.25;;;-1.90;100.00
22755;BME280;11544;42.020;23.094;2023-02-16T05:32:30;98575.31;;;-2.14;100.00
22755;BME280;11544;42.020;23.094;2023-02-16T05:34:57;98573.50;;;-1.68;100.00
22755;BME280;11544;42.020;23.094;2023-02-16T05:37:24;98568.63;;;-1.36;100.00
22755;BME280;11544;42.020;23.094;2023-02-16T05:39:51;98574.06;;;-2.01;100.00
22755;BME280;11544;42.020;23.094;2023-02-16T05:42:18;98577.38;;;-2.03;100.00
22755;BME280;11544;42.020;23.094;2023-02-16T05:44:45;98573.47;;;-1.94;100.00
22755;BME280;11544;42.020;23.094;2023-02-16T05:47:12;98576.72;;;-1.98;100.00
22755;BME280;11544;42.020;23.094;2023-02-16T05:49:42;98587.81;;;-1.97;100.00
22755;BME280;11544;42.020;23.094;2023-02-16T05:52:09;98591.31;;;-1.95;100.00
22755;BME280;11544;42.020;23.094;2023-02-16T05:54:36;98587.00;;;-1.72;100.00
22755;BME280;11544;42.020;23.094;2023-02-16T05:57:05;98589.63;;;-1.95;100.00
22755;BME280;11544;42.020;23.094;2023-02-16T05:59:32;98591.47;;;-1.66;100.00
22755;BME280;11544;42.020;23.094;2023-02-16T06:02:00;98585.22;;;-0.71;100.00
22755;BME280;11544;42.020;23.094;2023-02-16T06:04:26;98590.88;;;-0.54;100.00
22755;BME280;11544;42.020;23.094;2023-02-16T06:06:57;98590.47;;;-0.39;100.00
22755;BME280;11544;42.020;23.094;2023-02-16T06:09:25;98587.44;;;-0.54;100.00
22755;BME280;11544;42.020;23.094;2023-02-16T06:11:52;98586.59;;;-0.80;100.00
22755;BME280;11544;42.020;23.094;2023-02-16T06:14:20;98585.94;;;-1.02;100.00
22755;BME280;11544;42.020;23.094;2023-02-16T06:16:48;98590.88;;;-1.08;100.00
22755;BME280;11544;42.020;23.094;2023-02-16T06:19:20;98592.09;;;0.50;100.00
22755;BME280;11544;42.020;23.094;2023-02-16T06:21:53;98591.16;;;-0.45;100.00
22755;BME280;11544;42.020;23.094;2023-02-16T06:24:31;98574.13;;;0.83;100.00
22755;BME280;11544;42.020;23.094;2023-02-16T06:26:58;98582.06;;;-0.05;94.83
22755;BME280;11544;42.020;23.094;2023-02-16T06:29:25;98586.09;;;0.17;93.24
22755;BME280;11544;42.020;23.094;2023-02-16T06:31:52;98599.25;;;-0.87;97.47
22755;BME280;11544;42.020;23.094;2023-02-16T06:34:19;98600.94;;;0.29;96.97
22755;BME280;11544;42.020;23.094;2023-02-16T06:36:46;98606.19;;;-0.55;97.98
22755;BME280;11544;42.020;23.094;2023-02-16T06:39:13;98604.63;;;-0.50;99.06
22755;BME280;11544;42.020;23.094;2023-02-16T06:41:40;98606.94;;;-0.02;97.75
22755;BME280;11544;42.020;23.094;2023-02-16T06:44:12;98605.25;;;1.32;95.35
22755;BME280;11544;42.020;23.094;2023-02-16T06:46:46;98591.97;;;2.33;88.52
22755;BME280;11544;42.020;23.094;2023-02-16T06:49:18;98599.78;;;1.18;85.05
22755;BME280;11544;42.020;23.094;2023-02-16T06:51:46;98597.53;;;0.30;88.86
22755;BME280;11544;42.020;23.094;2023-02-16T06:54:14;98599.25;;;2.10;86.83
22755;BME280;11544;42.020;23.094;2023-02-16T06:56:41;98608.00;;;0.70;86.29
22755;BME280;11544;42.020;23.094;2023-02-16T06:59:10;98618.78;;;0.25;90.57
22755;BME280;11544;42.020;23.094;2023-02-16T07:01:37;98604.72;;;2.25;87.21
22755;BME280;11544;42.020;23.094;2023-02-16T07:04:04;98599.84;;;1.97;83.96
22755;BME280;11544;42.020;23.094;2023-02-16T07:06:31;98594.69;;;2.39;85.40
22755;BME280;11544;42.020;23.094;2023-02-16T07:08:59;98598.59;;;2.66;83.20
22755;BME280;11544;42.020;23.094;2023-02-16T07:11:26;98585.22;;;3.40;79.38
22755;BME280;11544;42.020;23.094;2023-02-16T07:13:53;98595.94;;;2.16;78.92
22755;BME280;11544;42.020;23.094;2023-02-16T07:16:22;98588.72;;;2.43;80.56
22755;BME280;11544;42.020;23.094;2023-02-16T07:18:50;98579.06;;;3.30;79.00
22755;BME280;11544;42.020;23.094;2023-02-16T07:21:31;98570.09;;;3.07;77.79
22755;BME280;11544;42.020;23.094;2023-02-16T07:23:59;98583.34;;;2.77;75.67
22755;BME280;11544;42.020;23.094;2023-02-16T07:26:27;98586.47;;;2.13;79.61
22755;BME280;11544;42.020;23.094;2023-02-16T07:28:55;98582.28;;;3.15;76.66
22755;BME280;11544;42.020;23.094;2023-02-16T07:31:23;98580.91;;;1.93;79.71
22755;BME280;11544;42.020;23.094;2023-02-16T07:33:55;98568.75;;;3.29;78.62
22755;BME280;11544;42.020;23.094;2023-02-16T07:36:26;98570.31;;;2.67;80.27
22755;BME280;11544;42.020;23.094;2023-02-16T07:38:54;98575.53;;;2.25;81.21
22755;BME280;11544;42.020;23.094;2023-02-16T07:41:25;98572.59;;;2.06;81.35
22755;BME280;11544;42.020;23.094;2023-02-16T07:43:53;98561.63;;;3.12;81.68
22755;BME280;11544;42.020;23.094;2023-02-16T07:46:23;98564.06;;;3.05;78.04
22755;BME280;11544;42.020;23.094;2023-02-16T07:48:51;98571.31;;;2.75;78.11
22755;BME280;11544;42.020;23.094;2023-02-16T07:51:26;98573.38;;;2.46;80.26
22755;BME280;11544;42.020;23.094;2023-02-16T07:53:55;98569.91;;;2.93;79.94
22755;BME280;11544;42.020;23.094;2023-02-16T07:56:29;98564.72;;;2.91;80.73
22755;BME280;11544;42.020;23.094;2023-02-16T07:58:58;98567.09;;;2.81;81.54
22755;BME280;11544;42.020;23.094;2023-02-16T08:01:26;98570.13;;;2.57;82.16
22755;BME280;11544;42.020;23.094;2023-02-16T08:03:53;98565.09;;;3.75;80.32
22755;BME280;11544;42.020;23.094;2023-02-16T08:06:20;98558.91;;;4.34;76.58
22755;BME280;11544;42.020;23.094;2023-02-16T08:08:47;98557.75;;;4.08;75.70
22755;BME280;11544;42.020;23.094;2023-02-16T08:11:21;98555.88;;;3.93;74.98
22755;BME280;11544;42.020;23.094;2023-02-16T08:13:49;98546.50;;;3.99;74.54
22755;BME280;11544;42.020;23.094;2023-02-16T08:16:21;98558.69;;;4.11;73.30
22755;BME280;11544;42.020;23.094;2023-02-16T08:18:48;98556.91;;;4.07;76.49
22755;BME280;11544;42.020;23.094;2023-02-16T08:21:18;98547.56;;;4.18;74.52
22755;BME280;11544;42.020;23.094;2023-02-16T08:23:48;98535.34;;;4.91;74.16
22755;BME280;11544;42.020;23.094;2023-02-16T08:26:20;98534.28;;;4.65;73.12
22755;BME280;11544;42.020;23.094;2023-02-16T08:28:47;98526.75;;;4.93;72.20
22755;BME280;11544;42.020;23.094;2023-02-16T08:31:20;98531.19;;;4.18;73.23
22755;BME280;11544;42.020;23.094;2023-02-16T08:33:49;98529.06;;;5.88;70.09
22755;BME280;11544;42.020;23.094;2023-02-16T08:36:18;98540.91;;;4.40;71.53
22755;BME280;11544;42.020;23.094;2023-02-16T08:38:46;98535.22;;;3.94;74.22
22755;BME280;11544;42.020;23.094;2023-02-16T08:41:17;98535.56;;;4.25;74.89
22755;BME280;11544;42.020;23.094;2023-02-16T08:43:45;98520.25;;;5.46;71.67
22755;BME280;11544;42.020;23.094;2023-02-16T08:46:12;98521.88;;;5.35;69.74
22755;BME280;11544;42.020;23.094;2023-02-16T08:48:40;98507.31;;;5.47;69.91
22755;BME280;11544;42.020;23.094;2023-02-16T08:51:07;98504.19;;;6.22;67.54
22755;BME280;11544;42.020;23.094;2023-02-16T08:53:38;98511.50;;;5.28;68.60
22755;BME280;11544;42.020;23.094;2023-02-16T08:56:07;98516.34;;;4.82;71.55
22755;BME280;11544;42.020;23.094;2023-02-16T08:58:37;98510.53;;;5.11;72.04
22755;BME280;11544;42.020;23.094;2023-02-16T09:01:07;98514.94;;;5.24;73.22
22755;BME280;11544;42.020;23.094;2023-02-16T09:03:36;98503.03;;;5.57;71.00
22755;BME280;11544;42.020;23.094;2023-02-16T09:06:04;98502.78;;;5.17;72.84
22755;BME280;11544;42.020;23.094;2023-02-16T09:08:32;98499.91;;;6.44;69.42
22755;BME280;11544;42.020;23.094;2023-02-16T09:11:03;98498.06;;;5.94;67.95
22755;BME280;11544;42.020;23.094;2023-02-16T09:13:35;98497.06;;;5.73;69.67
22755;BME280;11544;42.020;23.094;2023-02-16T09:16:04;98499.00;;;6.22;67.94
22755;BME280;11544;42.020;23.094;2023-02-16T09:18:32;98492.84;;;5.86;69.68
22755;BME280;11544;42.020;23.094;2023-02-16T09:21:07;98497.25;;;6.10;68.69
22755;BME280;11544;42.020;23.094;2023-02-16T09:23:41;98500.59;;;5.86;69.21
22755;BME280;11544;42.020;23.094;2023-02-16T09:26:10;98491.25;;;6.33;67.35
22755;BME280;11544;42.020;23.094;2023-02-16T09:28:38;98483.50;;;6.51;67.07
22755;BME280;11544;42.020;23.094;2023-02-16T09:31:14;98484.34;;;7.27;64.85
22755;BME280;11544;42.020;23.094;2023-02-16T09:33:43;98487.84;;;6.58;65.14
22755;BME280;11544;42.020;23.094;2023-02-16T09:36:11;98479.19;;;6.38;65.13
22755;BME280;11544;42.020;23.094;2023-02-16T09:38:38;98472.28;;;6.31;65.89
22755;BME280;11544;42.020;23.094;2023-02-16T09:46:37;98461.91;;;7.06;61.26
22755;BME280;11544;42.020;23.094;2023-02-16T09:49:05;98473.19;;;6.90;62.81
22755;BME280;11544;42.020;23.094;2023-02-16T09:51:38;98461.94;;;6.86;61.93
22755;BME280;11544;42.020;23.094;2023-02-16T09:54:24;98445.09;;;8.12;59.48
22755;BME280;11544;42.020;23.094;2023-02-16T09:57:16;98443.22;;;8.31;58.66
22755;BME280;11544;42.020;23.094;2023-02-16T10:08:37;98437.50;;;7.75;58.90
22755;BME280;11544;42.020;23.094;2023-02-16T10:14:12;98418.75;;;8.67;55.88
22755;BME280;11544;42.020;23.094;2023-02-16T10:16:49;98411.63;;;8.87;55.53
22755;BME280;11544;42.020;23.094;2023-02-16T10:19:28;98409.38;;;8.46;56.19
22755;BME280;11544;42.020;23.094;2023-02-16T10:22:02;98405.31;;;8.00;56.77
22755;BME280;11544;42.020;23.094;2023-02-16T10:27:27;98405.41;;;7.90;57.47
22755;BME280;11544;42.020;23.094;2023-02-16T10:29:58;98405.19;;;8.23;57.76
22755;BME280;11544;42.020;23.094;2023-02-16T10:32:27;98400.47;;;8.72;55.98
22755;BME280;11544;42.020;23.094;2023-02-16T10:37:43;98394.22;;;8.96;55.87
22755;BME280;11544;42.020;23.094;2023-02-16T10:40:28;98389.06;;;8.89;55.71
22755;BME280;11544;42.020;23.094;2023-02-16T10:43:31;98379.63;;;8.79;54.12
22755;BME280;11544;42.020;23.094;2023-02-16T10:46:04;98376.09;;;8.85;53.47
22755;BME280;11544;42.020;23.094;2023-02-16T10:48:32;98376.63;;;9.19;54.52
22755;BME280;11544;42.020;23.094;2023-02-16T10:51:11;98365.16;;;9.34;53.30
22755;BME280;11544;42.020;23.094;2023-02-16T10:53:47;98366.13;;;9.27;52.85
22755;BME280;11544;42.020;23.094;2023-02-16T10:56:35;98360.91;;;9.28;53.08
22755;BME280;11544;42.020;23.094;2023-02-16T10:59:15;98362.81;;;9.11;53.07
22755;BME280;11544;42.020;23.094;2023-02-16T11:01:48;98358.84;;;9.53;51.47
22755;BME280;11544;42.020;23.094;2023-02-16T11:04:39;98348.97;;;9.79;50.82
22755;BME280;11544;42.020;23.094;2023-02-16T11:07:10;98341.88;;;9.90;51.73
22755;BME280;11544;42.020;23.094;2023-02-16T11:09:38;98337.69;;;9.77;51.04
22755;BME280;11544;42.020;23.094;2023-02-16T11:12:23;98333.97;;;9.94;49.73
22755;BME280;11544;42.020;23.094;2023-02-16T11:14:59;98324.59;;;9.83;50.30
22755;BME280;11544;42.020;23.094;2023-02-16T11:17:30;98318.72;;;10.24;51.50
22755;BME280;11544;42.020;23.094;2023-02-16T11:20:05;98312.88;;;10.10;49.71
22755;BME280;11544;42.020;23.094;2023-02-16T11:22:37;98315.75;;;9.94;50.09
22755;BME280;11544;42.020;23.094;2023-02-16T11:27:58;98305.00;;;10.14;48.82
22755;BME280;11544;42.020;23.094;2023-02-16T11:30:36;98299.00;;;10.62;48.76
22755;BME280;11544;42.020;23.094;2023-02-16T11:33:26;98297.53;;;10.47;47.70
22755;BME280;11544;42.020;23.094;2023-02-16T11:35:54;98291.25;;;10.05;48.05
22755;BME280;11544;42.020;23.094;2023-02-16T11:38:31;98286.06;;;10.03;49.30
22755;BME280;11544;42.020;23.094;2023-02-16T11:41:02;98287.13;;;10.46;49.08
22755;BME280;11544;42.020;23.094;2023-02-16T11:43:33;98284.28;;;10.58;48.87
22755;BME280;11544;42.020;23.094;2023-02-16T11:46:17;98277.34;;;10.58;48.31
22755;BME280;11544;42.020;23.094;2023-02-16T11:48:45;98269.22;;;10.74;48.95
22755;BME280;11544;42.020;23.094;2023-02-16T11:51:14;98267.19;;;10.90;48.50
22755;BME280;11544;42.020;23.094;2023-02-16T11:53:43;98271.63;;;10.36;48.51
22755;BME280;11544;42.020;23.094;2023-02-16T11:56:25;98253.78;;;11.07;46.62
22755;BME280;11544;42.020;23.094;2023-02-16T11:59:15;98245.00;;;11.11;46.89
22755;BME280;11544;42.020;23.094;2023-02-16T12:16:13;98211.28;;;11.40;45.14
22755;BME280;11544;42.020;23.094;2023-02-16T12:22:14;98208.75;;;10.97;45.51
22755;BME280;11544;42.020;23.094;2023-02-16T12:38:26;98179.84;;;11.81;43.82
22755;BME280;11544;42.020;23.094;2023-02-16T12:43:31;98173.13;;;12.06;42.84
22755;BME280;11544;42.020;23.094;2023-02-16T12:46:10;98168.69;;;12.10;43.05
22755;BME280;11544;42.020;23.094;2023-02-16T12:48:56;98168.69;;;12.10;42.97
22755;BME280;11544;42.020;23.094;2023-02-16T12:51:31;98165.88;;;12.18;42.07
22755;BME280;11544;42.020;23.094;2023-02-16T12:54:18;98155.00;;;12.00;42.46
22755;BME280;11544;42.020;23.094;2023-02-16T12:57:00;98154.59;;;12.47;41.74
22755;BME280;11544;42.020;23.094;2023-02-16T13:02:44;98149.16;;;12.23;41.74
22755;BME280;11544;42.020;23.094;2023-02-16T13:05:18;98144.69;;;12.28;41.32
22755;BME280;11544;42.020;23.094;2023-02-16T13:07:51;98143.28;;;12.46;40.84
22755;BME280;11544;42.020;23.094;2023-02-16T13:10:32;98143.16;;;12.51;40.16
22755;BME280;11544;42.020;23.094;2023-02-16T13:13:07;98126.84;;;12.73;39.21
22755;BME280;11544;42.020;23.094;2023-02-16T13:15:45;98132.09;;;12.73;38.98
22755;BME280;11544;42.020;23.094;2023-02-16T13:18:24;98123.78;;;12.88;38.79
22755;BME280;11544;42.020;23.094;2023-02-16T13:21:16;98119.22;;;12.65;39.90
22755;BME280;11544;42.020;23.094;2023-02-16T13:27:11;98112.41;;;12.89;37.40
22755;BME280;11544;42.020;23.094;2023-02-16T13:35:06;98106.50;;;12.82;38.91
22755;BME280;11544;42.020;23.094;2023-02-16T13:45:25;98104.53;;;12.90;37.25
22755;BME280;11544;42.020;23.094;2023-02-16T13:47:54;98103.75;;;12.87;37.89
22755;BME280;11544;42.020;23.094;2023-02-16T13:52:54;98103.53;;;12.65;38.06
22755;BME280;11544;42.020;23.094;2023-02-16T13:55:29;98102.72;;;12.63;38.90
22755;BME280;11544;42.020;23.094;2023-02-16T13:58:03;98106.69;;;12.76;38.67
22755;BME280;11544;42.020;23.094;2023-02-16T14:00:48;98101.59;;;12.71;39.07
22755;BME280;11544;42.020;23.094;2023-02-16T14:05:47;98093.94;;;12.93;38.22
22755;BME280;11544;42.020;23.094;2023-02-16T14:08:30;98090.22;;;12.73;39.04
22755;BME280;11544;42.020;23.094;2023-02-16T14:11:00;98096.28;;;12.75;39.72
22755;BME280;11544;42.020;23.094;2023-02-16T14:16:07;98087.13;;;12.60;39.91
22755;BME280;11544;42.020;23.094;2023-02-16T14:18:41;98086.66;;;12.75;40.87
22755;BME280;11544;42.020;23.094;2023-02-16T14:21:30;98093.22;;;12.60;40.41
22755;BME280;11544;42.020;23.094;2023-02-16T14:24:00;98086.91;;;12.96;39.91
22755;BME280;11544;42.020;23.094;2023-02-16T14:26:30;98081.53;;;13.00;39.66
22755;BME280;11544;42.020;23.094;2023-02-16T14:29:16;98083.38;;;12.68;40.21
22755;BME280;11544;42.020;23.094;2023-02-16T14:31:49;98094.97;;;12.60;39.93
22755;BME280;11544;42.020;23.094;2023-02-16T14:34:50;98090.47;;;12.93;39.84
22755;BME280;11544;42.020;23.094;2023-02-16T14:37:28;98081.34;;;13.06;38.91
22755;BME280;11544;42.020;23.094;2023-02-16T14:40:10;98091.31;;;12.65;39.73
22755;BME280;11544;42.020;23.094;2023-02-16T14:42:45;98097.09;;;12.77;39.63
22755;BME280;11544;42.020;23.094;2023-02-16T14:45:36;98087.38;;;12.52;40.40
22755;BME280;11544;42.020;23.094;2023-02-16T14:57:15;98099.47;;;12.23;41.71
22755;BME280;11544;42.020;23.094;2023-02-16T15:00:10;98091.47;;;11.98;42.33
22755;BME280;11544;42.020;23.094;2023-02-16T15:02:41;98092.06;;;11.74;42.79
22755;BME280;11544;42.020;23.094;2023-02-16T15:05:23;98097.63;;;12.28;49.39
22755;BME280;11544;42.020;23.094;2023-02-16T15:10:28;98098.09;;;13.01;48.55
22755;BME280;11544;42.020;23.094;2023-02-16T15:12:55;98090.41;;;12.37;44.12
22755;BME280;11544;42.020;23.094;2023-02-16T15:15:41;98091.47;;;11.98;43.70
22755;BME280;11544;42.020;23.094;2023-02-16T15:18:18;98100.91;;;11.70;44.03
22755;BME280;11544;42.020;23.094;2023-02-16T15:20:47;98105.31;;;11.68;44.02
22755;BME280;11544;42.020;23.094;2023-02-16T15:23:20;98103.53;;;11.34;44.49
22755;BME280;11544;42.020;23.094;2023-02-16T15:26:03;98107.78;;;11.38;44.92